Portada
METAR-TAF:

METAR-TAF

Aeroports :

Txeboksari, Rússia

latitud: 56-05-24N, longitud: 047-20-50E, altitud: 171 m

Observació

L'informe es va fer fa 44 minuts, a les 11:30 UTC
Vent 8 kt del Oest, variant entre Oest/Sud-Oest i Nord-Oest
Temperatura 23°C
Humitat 36%
Pressió 1013 hPa
Visibilitat 10 km o més
Núvols disperses a una alçada de 4000 ft, Cumulonimbus.

METAR: UWKS 161130Z 28004MPS 250V320 9999 SCT040CB 23/07 Q1013 R24/010060 NOSIG RMK QFE745

Hora: 15:14 (12:14 UTC)

Pronòstic

L'informe es va fer fa 1 hora i 33 minuts, a les 10:41 UTC
Pronòstic vàlid del 16 a les 12 UTC al 16 a les 21 UTC
Vent 6 kt del Oest amb ràfegues de 16 kt
Visibilitat 10 km o més
Cel ennuvolat a una alçada de 2000 ft
Núvols disperses a una alçada de 3000 ft, Cumulonimbus.

TAF: UWKS 161041Z 1612/1621 26003G08MPS 9999 BKN020 SCT030CB

Observacions i pronòstics meteorològics de més de 4000 aeroports (METAR i TAF).

Les estacions disponibles són els punts grocs i vermells al mapa.

Posi el ratolí al punt desitjat per veure el nom de l'estació.

Feu clic per veure les observacions i els pronòstics meteorològics.

Per canviar el mapa: feu clic els botons verds amb una creu de color negre per apropar; al botó verd amb un guió per allunyar la imatge; o en les fletxes verdes per a mapes adjacents.


METAR-TAF: